createdAt,value
2023-02-27T00:01:34.491Z,2.85
2023-02-27T00:06:28.408Z,3.22
2023-02-27T00:11:21.495Z,4.22
2023-02-27T00:16:15.878Z,1.85
2023-02-27T00:21:09.784Z,2.67
2023-02-27T00:26:03.672Z,2.72
2023-02-27T00:30:55.887Z,2.08
2023-02-27T00:35:59.912Z,3.88
2023-02-27T00:40:52.782Z,2.90
2023-02-27T00:45:45.866Z,3.35
2023-02-27T00:50:39.779Z,1.77
2023-02-27T00:55:31.986Z,1.52
2023-02-27T01:00:24.810Z,1.50
2023-02-27T01:05:19.676Z,4.53
2023-02-27T01:10:13.007Z,2.45
2023-02-27T01:15:11.105Z,4.43
2023-02-27T01:20:04.137Z,2.75
2023-02-27T01:24:57.429Z,4.75
2023-02-27T01:29:50.931Z,3.13
2023-02-27T01:34:44.681Z,1.70
2023-02-27T01:39:37.700Z,5.25
2023-02-27T01:44:32.281Z,5.85
2023-02-27T01:49:34.552Z,2.63
2023-02-27T01:54:28.112Z,2.00
2023-02-27T01:59:21.463Z,2.13
2023-02-27T02:04:35.366Z,2.30
2023-02-27T02:09:29.635Z,1.92
2023-02-27T02:14:22.681Z,1.90
2023-02-27T02:19:33.300Z,2.55
2023-02-27T02:24:40.922Z,3.63
2023-02-27T02:29:56.469Z,4.63
2023-02-27T02:35:07.286Z,1.80
2023-02-27T02:40:17.118Z,6.75
2023-02-27T02:45:12.126Z,1.27
2023-02-27T02:50:11.833Z,2.08
2023-02-27T02:55:16.085Z,2.50
2023-02-27T03:00:14.181Z,2.47
2023-02-27T03:05:16.206Z,1.58
2023-02-27T03:10:14.571Z,2.22
2023-02-27T03:15:21.882Z,2.72
2023-02-27T03:20:30.411Z,2.28
2023-02-27T03:25:33.837Z,1.08
2023-02-27T03:30:45.700Z,3.33
2023-02-27T03:36:04.134Z,1.20
2023-02-27T03:41:23.037Z,1.15
2023-02-27T03:46:27.384Z,3.08
2023-02-27T03:51:23.327Z,2.08
2023-02-27T03:56:19.146Z,2.05
2023-02-27T04:01:11.976Z,2.28
2023-02-27T04:06:25.485Z,4.28
2023-02-27T04:11:34.865Z,1.33
2023-02-27T04:16:51.023Z,1.35
2023-02-27T04:22:17.368Z,1.52
2023-02-27T04:27:37.237Z,3.95
2023-02-27T04:32:45.505Z,0.93
2023-02-27T04:37:50.728Z,2.92
2023-02-27T04:42:49.350Z,1.80
2023-02-27T04:47:52.421Z,1.25
2023-02-27T04:53:07.919Z,1.23
2023-02-27T04:58:06.678Z,1.90
2023-02-27T05:03:15.884Z,0.68
2023-02-27T05:08:27.034Z,1.27
2023-02-27T05:13:34.065Z,1.23
2023-02-27T05:18:27.853Z,2.80
2023-02-27T05:23:42.538Z,1.80
2023-02-27T05:28:43.045Z,3.05
2023-02-27T05:34:19.456Z,1.60
2023-02-27T05:39:14.245Z,2.50
2023-02-27T05:44:09.426Z,3.50
2023-02-27T05:49:06.950Z,1.10
2023-02-27T05:54:32.341Z,1.30
2023-02-27T05:59:31.063Z,1.23
2023-02-27T06:04:24.344Z,2.03
2023-02-27T06:09:17.287Z,1.75
2023-02-27T06:14:10.564Z,3.03
2023-02-27T06:19:04.989Z,3.28
2023-02-27T06:23:57.818Z,3.72
2023-02-27T06:28:51.120Z,2.97
2023-02-27T06:33:44.708Z,4.40
2023-02-27T06:38:39.109Z,3.22
2023-02-27T06:43:35.059Z,2.78
2023-02-27T06:48:27.218Z,3.22
2023-02-27T06:53:22.073Z,3.25
2023-02-27T06:58:15.572Z,4.15
2023-02-27T07:03:08.248Z,3.75
2023-02-27T07:08:01.722Z,2.63
2023-02-27T07:12:54.217Z,2.65
2023-02-27T07:17:46.649Z,6.18
2023-02-27T07:22:41.367Z,3.10
2023-02-27T07:27:34.824Z,4.70
2023-02-27T07:32:28.274Z,2.60
2023-02-27T07:37:21.620Z,1.83
2023-02-27T07:42:14.016Z,2.83
2023-02-27T07:47:06.613Z,5.25
2023-02-27T07:51:58.997Z,3.40
2023-02-27T07:56:51.858Z,3.92
2023-02-27T08:01:45.205Z,6.07
2023-02-27T08:06:38.211Z,3.50
2023-02-27T08:11:30.709Z,8.75
2023-02-27T08:16:23.523Z,4.45
2023-02-27T08:21:15.925Z,6.18
2023-02-27T08:26:09.292Z,3.70
2023-02-27T08:31:02.666Z,2.75
2023-02-27T08:35:56.306Z,2.83
2023-02-27T08:40:53.675Z,3.30
2023-02-27T08:45:48.483Z,5.25
2023-02-27T08:50:41.400Z,4.10
2023-02-27T08:55:34.538Z,7.00
2023-02-27T09:00:27.729Z,2.92
2023-02-27T09:05:22.960Z,5.75
2023-02-27T09:10:15.719Z,7.53
2023-02-27T09:15:09.316Z,2.08
2023-02-27T09:20:03.411Z,2.78
2023-02-27T09:25:00.581Z,3.53
2023-02-27T09:29:55.937Z,4.68
2023-02-27T09:34:49.321Z,8.23
2023-02-27T09:39:46.008Z,3.88
2023-02-27T09:44:49.400Z,3.67
2023-02-27T09:50:00.962Z,2.90
2023-02-27T09:54:55.866Z,2.13
2023-02-27T09:59:55.398Z,1.40
2023-02-27T10:05:13.998Z,5.35
2023-02-27T10:10:43.881Z,2.15
2023-02-27T10:15:45.013Z,5.05
2023-02-27T10:25:44.296Z,5.55
2023-02-27T10:30:37.853Z,5.68
2023-02-27T10:35:44.215Z,2.58
2023-02-27T10:40:39.850Z,2.83
2023-02-27T10:45:32.970Z,3.90
2023-02-27T10:50:29.753Z,3.13
2023-02-27T10:55:35.559Z,2.20
2023-02-27T11:00:41.629Z,3.47
2023-02-27T11:05:36.760Z,4.57
2023-02-27T11:10:29.817Z,2.33
2023-02-27T11:15:26.282Z,5.68
2023-02-27T11:20:30.668Z,3.97
2023-02-27T11:25:26.042Z,2.42
2023-02-27T11:30:23.108Z,5.07
2023-02-27T11:35:40.154Z,2.55
2023-02-27T11:40:53.720Z,3.42
2023-02-27T11:46:18.389Z,2.50
2023-02-27T11:51:07.606Z,2.53
2023-02-27T11:56:05.485Z,3.03
2023-02-27T12:01:07.336Z,1.85
2023-02-27T12:06:17.115Z,2.88
2023-02-27T12:11:19.107Z,3.63
2023-02-27T12:16:22.544Z,2.55
2023-02-27T12:21:41.031Z,4.10
2023-02-27T12:26:44.457Z,3.05
2023-02-27T12:31:36.669Z,4.68
2023-02-27T12:36:29.646Z,4.20
2023-02-27T12:41:44.905Z,8.20
2023-02-27T12:46:57.778Z,3.20
2023-02-27T12:52:13.262Z,2.67
2023-02-27T12:57:53.557Z,1.80
2023-02-27T13:03:04.295Z,4.25
2023-02-27T13:08:19.299Z,3.58
2023-02-27T13:13:38.617Z,3.80
2023-02-27T13:18:31.152Z,1.77
2023-02-27T13:23:27.322Z,5.88
2023-02-27T13:28:28.400Z,3.22
2023-02-27T13:33:51.496Z,2.88
2023-02-27T13:38:45.992Z,1.95
2023-02-27T13:43:51.386Z,8.95
2023-02-27T13:48:46.787Z,10.05
2023-02-27T13:53:39.255Z,12.50
2023-02-27T13:58:52.345Z,8.25
2023-02-27T14:03:56.742Z,8.38
2023-02-27T14:08:59.650Z,21.20
2023-02-27T14:14:00.315Z,11.07
2023-02-27T14:18:59.042Z,10.02
2023-02-27T14:23:54.885Z,5.30
2023-02-27T14:28:56.418Z,9.27
2023-02-27T14:33:55.902Z,7.35
2023-02-27T14:38:49.864Z,7.28
2023-02-27T14:43:55.914Z,6.53
2023-02-27T14:48:54.119Z,4.97
2023-02-27T14:53:59.769Z,9.40
2023-02-27T14:59:03.602Z,7.22
2023-02-27T15:04:00.707Z,4.43
2023-02-27T15:08:55.236Z,7.97
2023-02-27T15:13:51.349Z,9.85
2023-02-27T15:18:51.055Z,9.15
2023-02-27T15:23:45.923Z,11.73
2023-02-27T15:28:40.817Z,12.98
2023-02-27T15:33:34.389Z,7.95
2023-02-27T15:38:35.888Z,8.05
2023-02-27T15:43:30.841Z,14.05
2023-02-27T15:48:24.516Z,8.52
2023-02-27T15:53:25.911Z,9.40
2023-02-27T15:58:25.027Z,7.57
2023-02-27T16:03:23.431Z,5.70
2023-02-27T16:08:20.602Z,10.90
2023-02-27T16:13:21.546Z,7.15
2023-02-27T16:18:14.687Z,6.28
2023-02-27T16:23:07.882Z,6.82
2023-02-27T16:28:06.679Z,7.03
2023-02-27T16:33:02.795Z,4.97
2023-02-27T16:38:01.606Z,4.65
2023-02-27T16:42:55.028Z,7.93
2023-02-27T16:47:52.071Z,7.88
2023-02-27T16:52:45.679Z,6.53
2023-02-27T16:57:38.762Z,7.05
2023-02-27T17:02:31.784Z,6.57
2023-02-27T17:07:24.855Z,6.72
2023-02-27T17:12:18.482Z,6.57
2023-02-27T17:17:12.092Z,7.82
2023-02-27T17:22:05.496Z,9.25
2023-02-27T17:26:58.055Z,8.07
2023-02-27T17:31:51.964Z,6.25
2023-02-27T17:36:46.480Z,9.55
2023-02-27T17:41:39.853Z,6.70
2023-02-27T17:46:33.184Z,9.45
2023-02-27T17:51:28.544Z,7.85
2023-02-27T17:56:20.684Z,10.25
2023-02-27T18:01:23.002Z,8.10
2023-02-27T18:06:16.586Z,7.43
2023-02-27T18:11:15.660Z,7.72
2023-02-27T18:16:10.168Z,8.45
2023-02-27T18:21:06.255Z,10.40
2023-02-27T18:26:05.343Z,19.98
2023-02-27T18:30:58.308Z,27.05
2023-02-27T18:35:52.213Z,26.08
2023-02-27T18:40:45.238Z,22.80
2023-02-27T18:45:38.702Z,15.95
2023-02-27T18:50:33.040Z,19.75
2023-02-27T18:55:26.565Z,25.45
2023-02-27T19:00:21.678Z,17.05
2023-02-27T19:05:15.156Z,16.88
2023-02-27T19:10:08.445Z,14.77
2023-02-27T19:15:01.187Z,11.52
2023-02-27T19:19:53.931Z,9.32
2023-02-27T19:24:47.884Z,13.00
2023-02-27T19:29:40.351Z,17.88
2023-02-27T19:34:33.398Z,11.00
2023-02-27T19:39:26.476Z,10.30
2023-02-27T19:44:19.958Z,10.02
2023-02-27T19:49:13.147Z,9.55
2023-02-27T19:54:05.974Z,8.65
2023-02-27T19:59:01.244Z,8.02
2023-02-27T20:03:56.761Z,12.35
2023-02-27T20:08:50.923Z,21.02
2023-02-27T20:13:45.579Z,21.30
2023-02-27T20:18:41.741Z,14.05
2023-02-27T20:23:38.797Z,17.17
2023-02-27T20:28:32.851Z,16.33
2023-02-27T20:33:26.113Z,12.88
2023-02-27T20:38:20.215Z,22.58
2023-02-27T20:43:13.054Z,26.17
2023-02-27T20:48:07.763Z,11.65
2023-02-27T20:53:01.491Z,13.00
2023-02-27T20:57:55.012Z,21.92
2023-02-27T21:02:48.945Z,22.13
2023-02-27T21:07:43.017Z,21.13
2023-02-27T21:12:36.696Z,26.85
2023-02-27T21:17:29.955Z,14.57
2023-02-27T21:22:23.862Z,12.82
2023-02-27T21:27:19.791Z,13.18
2023-02-27T21:32:13.727Z,13.45
2023-02-27T21:37:07.957Z,12.88
2023-02-27T21:42:01.714Z,10.43
2023-02-27T21:46:55.921Z,13.15
2023-02-27T21:51:49.308Z,14.27
2023-02-27T21:56:42.597Z,6.18
2023-02-27T22:01:35.234Z,12.93
2023-02-27T22:06:29.449Z,6.63
2023-02-27T22:11:23.366Z,5.90
2023-02-27T22:16:15.918Z,5.28
2023-02-27T22:21:12.471Z,9.85
2023-02-27T22:26:10.037Z,8.55
2023-02-27T22:31:20.926Z,8.88
2023-02-27T22:36:17.051Z,10.88
2023-02-27T22:41:19.227Z,9.23
2023-02-27T22:46:15.092Z,8.60
2023-02-27T22:51:12.770Z,6.15
2023-02-27T22:56:09.287Z,7.13
2023-02-27T23:01:03.184Z,6.18
2023-02-27T23:05:57.428Z,6.07
2023-02-27T23:10:50.644Z,7.18
2023-02-27T23:15:43.538Z,7.60
2023-02-27T23:20:40.594Z,6.20
2023-02-27T23:25:34.863Z,8.68
2023-02-27T23:30:29.471Z,7.57
2023-02-27T23:35:24.102Z,3.33
2023-02-27T23:40:18.159Z,4.30
2023-02-27T23:45:32.828Z,4.70
2023-02-27T23:50:31.769Z,4.78
2023-02-27T23:55:25.541Z,4.50
